Maersk Essen — V7UQ8 — position and weather

sailwx.info

Track history (hours):
 
Tides and Currents Weather Stations Pressure Air Temp Water Temp Dewpoint Dewpoint Depression Visibility Wind Speed Wind Dir Waves Ship Positions

Maersk Essen

Last reported at 2018-Jan-17 23:54 UTC. Time now 2018-Jan-23 01:58 UTC.
Position N 33°52' W 123°41'.

Length 367 m; draft 12.9 m.

Type: Ship (hazmat cat A). MMSI: 538004007.

Date/timePositionNaut miles runAvg speedWind from/ knotsBaromVisibWave heightAir tempDewpointWater temp
2018-Jan-17 23:54N 33°52' W 123°41'  
2018-Jan-12 14:51N 33°44' W 118°15'0 0.0
2018-Jan-12 14:27N 33°44' W 118°15'0 0.0
2018-Jan-12 13:45N 33°44' W 118°15'0 0.0
2018-Jan-12 12:15N 33°44' W 118°15'0 0.0
2018-Jan-12 10:57N 33°44' W 118°15'0 0.0
2018-Jan-12 10:27N 33°44' W 118°15'0 0.0
2018-Jan-12 09:57N 33°44' W 118°15'0 0.0
2018-Jan-12 09:21N 33°44' W 118°15'0 0.0
2018-Jan-12 08:57N 33°44' W 118°15'0 0.0
2018-Jan-12 08:27N 33°44' W 118°15'0 0.0
2018-Jan-12 07:51N 33°44' W 118°15'0 0.0
2018-Jan-12 07:30N 33°44' W 118°15'0 0.0
2018-Jan-12 07:00N 33°44' W 118°15'0 0.0
2018-Jan-12 06:30N 33°44' W 118°15'0 0.0
2018-Jan-12 06:00N 33°44' W 118°15'0 0.0
2018-Jan-12 05:30N 33°44' W 118°15'0 0.0
2018-Jan-12 04:57N 33°44' W 118°15'0 0.0
2018-Jan-12 04:27N 33°44' W 118°15'0 0.0
2018-Jan-12 01:51N 33°44' W 118°15'0 0.0
2018-Jan-12 01:27N 33°44' W 118°15'0 0.0
2018-Jan-12 00:57N 33°44' W 118°15'0 0.0
2018-Jan-12 00:27N 33°44' W 118°15'0 0.0
2018-Jan-11 23:51N 33°44' W 118°15'0 0.0
2018-Jan-11 23:27N 33°44' W 118°15'0 0.0
2018-Jan-11 22:57N 33°44' W 118°15'0 0.0
2018-Jan-11 22:27N 33°44' W 118°15'0 0.0
2018-Jan-11 21:57N 33°44' W 118°15'3 0.3
2018-Jan-11 11:41N 33°41' W 118°14'5 7.3
2018-Jan-11 11:01N 33°36' W 118°17'3 8.2
2018-Jan-11 10:42N 33°36' W 118°20'210.7
2018-Jan-11 10:30N 33°37' W 118°22'510.6
2018-Jan-11 10:00N 33°40' W 118°28'510.9
2018-Jan-11 09:30N 33°42' W 118°34'611.4
2018-Jan-11 09:00N 33°45' W 118°40'611.3
2018-Jan-11 08:30N 33°48' W 118°45'510.7
2018-Jan-11 08:01N 33°50' W 118°51'510.6
2018-Jan-11 07:30N 33°53' W 118°57'510.8
2018-Jan-11 07:00N 33°55' W 119°02'510.6
2018-Jan-11 06:30N 33°58' W 119°08'610.6
2018-Jan-11 05:59N 34°01' W 119°14'510.5
2018-Jan-11 05:28N 34°03' W 119°20'510.1
2018-Jan-11 05:00N 34°04' W 119°25'610.2
2018-Jan-11 04:28N 34°06' W 119°32'5 9.8
2018-Jan-11 03:58N 34°07' W 119°37'5 9.9
2018-Jan-11 03:27N 34°08' W 119°43'510.0
2018-Jan-11 03:00N 34°09' W 119°48'5 9.9
2018-Jan-11 02:30N 34°11' W 119°54'5 9.9
2018-Jan-11 02:00N 34°12' W 119°60'5 9.9
2018-Jan-11 01:30N 34°14' W 120°06'510.4
2018-Jan-11 00:59N 34°15' W 120°12'510.4
2018-Jan-11 00:27N 34°16' W 120°18'510.6
2018-Jan-10 23:57N 34°18' W 120°24'610.4
2018-Jan-10 23:25N 34°19' W 120°31'510.7
2018-Jan-10 23:00N 34°20' W 120°36'510.7
2018-Jan-10 22:30N 34°22' W 120°42'510.5
2018-Jan-10 22:00N 34°23' W 120°48'510.6
2018-Jan-10 21:30N 34°24' W 120°55'510.3
2018-Jan-10 21:00N 34°24' W 121°01'510.7
2018-Jan-10 20:30N 34°24' W 121°07'510.3
2018-Jan-10 20:00N 34°24' W 121°14'510.2
2018-Jan-10 19:31N 34°24' W 121°20'510.5
2018-Jan-10 19:00N 34°24' W 121°26'510.3
2018-Jan-10 18:30N 34°24' W 121°32'510.3
2018-Jan-10 18:00N 34°24' W 121°39'510.2
2018-Jan-10 17:31N 34°24' W 121°45'510.4
2018-Jan-10 17:01N 34°24' W 121°51'610.5
2018-Jan-10 16:29N 34°24' W 121°58'510.5
2018-Jan-10 16:00N 34°24' W 122°04'510.3
2018-Jan-10 15:29N 34°24' W 122°10'510.4
2018-Jan-10 15:00N 34°24' W 122°16'610.3
2018-Jan-10 14:28N 34°24' W 122°23'610.5
2018-Jan-10 13:53N 34°24' W 122°31'410.3
2018-Jan-10 13:30N 34°24' W 122°35'3010.5
2018-Jan-10 10:41N 34°24' W 123°11'310.5
2018-Jan-10 10:26N 34°24' W 123°15'1710.5
2018-Jan-10 08:47N 34°24' W 123°36'  
Track history (hours):
 
Tides and Currents Weather Stations Pressure Air Temp Water Temp Dewpoint Dewpoint Depression Visibility Wind Speed Wind Dir Waves Ship Positions

Maersk Essen

Last reported at 2018-Jan-17 23:54 UTC. Time now 2018-Jan-23 01:58 UTC.
Position N 33°52' W 123°41'.

Length 367 m; draft 12.9 m.

Type: Ship (hazmat cat A). MMSI: 538004007.

Date/timePositionNaut miles runAvg speedWind from/ knotsBaromVisibWave heightAir tempDewpointWater temp
2018-Jan-17 23:54N 33°52' W 123°41'  
2018-Jan-12 14:51N 33°44' W 118°15'0 0.0
2018-Jan-12 14:27N 33°44' W 118°15'0 0.0
2018-Jan-12 13:45N 33°44' W 118°15'0 0.0
2018-Jan-12 12:15N 33°44' W 118°15'0 0.0
2018-Jan-12 10:57N 33°44' W 118°15'0 0.0
2018-Jan-12 10:27N 33°44' W 118°15'0 0.0
2018-Jan-12 09:57N 33°44' W 118°15'0 0.0
2018-Jan-12 09:21N 33°44' W 118°15'0 0.0
2018-Jan-12 08:57N 33°44' W 118°15'0 0.0
2018-Jan-12 08:27N 33°44' W 118°15'0 0.0
2018-Jan-12 07:51N 33°44' W 118°15'0 0.0
2018-Jan-12 07:30N 33°44' W 118°15'0 0.0
2018-Jan-12 07:00N 33°44' W 118°15'0 0.0
2018-Jan-12 06:30N 33°44' W 118°15'0 0.0
2018-Jan-12 06:00N 33°44' W 118°15'0 0.0
2018-Jan-12 05:30N 33°44' W 118°15'0 0.0
2018-Jan-12 04:57N 33°44' W 118°15'0 0.0
2018-Jan-12 04:27N 33°44' W 118°15'0 0.0
2018-Jan-12 01:51N 33°44' W 118°15'0 0.0
2018-Jan-12 01:27N 33°44' W 118°15'0 0.0
2018-Jan-12 00:57N 33°44' W 118°15'0 0.0
2018-Jan-12 00:27N 33°44' W 118°15'0 0.0
2018-Jan-11 23:51N 33°44' W 118°15'0 0.0
2018-Jan-11 23:27N 33°44' W 118°15'0 0.0
2018-Jan-11 22:57N 33°44' W 118°15'0 0.0
2018-Jan-11 22:27N 33°44' W 118°15'0 0.0
2018-Jan-11 21:57N 33°44' W 118°15'3 0.3
2018-Jan-11 11:41N 33°41' W 118°14'5 7.3
2018-Jan-11 11:01N 33°36' W 118°17'3 8.2
2018-Jan-11 10:42N 33°36' W 118°20'210.7
2018-Jan-11 10:30N 33°37' W 118°22'510.6
2018-Jan-11 10:00N 33°40' W 118°28'510.9
2018-Jan-11 09:30N 33°42' W 118°34'611.4
2018-Jan-11 09:00N 33°45' W 118°40'611.3
2018-Jan-11 08:30N 33°48' W 118°45'510.7
2018-Jan-11 08:01N 33°50' W 118°51'510.6
2018-Jan-11 07:30N 33°53' W 118°57'510.8
2018-Jan-11 07:00N 33°55' W 119°02'510.6
2018-Jan-11 06:30N 33°58' W 119°08'610.6
2018-Jan-11 05:59N 34°01' W 119°14'510.5
2018-Jan-11 05:28N 34°03' W 119°20'510.1
2018-Jan-11 05:00N 34°04' W 119°25'610.2
2018-Jan-11 04:28N 34°06' W 119°32'5 9.8
2018-Jan-11 03:58N 34°07' W 119°37'5 9.9
2018-Jan-11 03:27N 34°08' W 119°43'510.0
2018-Jan-11 03:00N 34°09' W 119°48'5 9.9
2018-Jan-11 02:30N 34°11' W 119°54'5 9.9
2018-Jan-11 02:00N 34°12' W 119°60'5 9.9
2018-Jan-11 01:30N 34°14' W 120°06'510.4
2018-Jan-11 00:59N 34°15' W 120°12'510.4
2018-Jan-11 00:27N 34°16' W 120°18'510.6
2018-Jan-10 23:57N 34°18' W 120°24'610.4
2018-Jan-10 23:25N 34°19' W 120°31'510.7
2018-Jan-10 23:00N 34°20' W 120°36'510.7
2018-Jan-10 22:30N 34°22' W 120°42'510.5
2018-Jan-10 22:00N 34°23' W 120°48'510.6
2018-Jan-10 21:30N 34°24' W 120°55'510.3
2018-Jan-10 21:00N 34°24' W 121°01'510.7
2018-Jan-10 20:30N 34°24' W 121°07'510.3
2018-Jan-10 20:00N 34°24' W 121°14'510.2
2018-Jan-10 19:31N 34°24' W 121°20'510.5
2018-Jan-10 19:00N 34°24' W 121°26'510.3
2018-Jan-10 18:30N 34°24' W 121°32'510.3
2018-Jan-10 18:00N 34°24' W 121°39'510.2
2018-Jan-10 17:31N 34°24' W 121°45'510.4
2018-Jan-10 17:01N 34°24' W 121°51'610.5
2018-Jan-10 16:29N 34°24' W 121°58'510.5
2018-Jan-10 16:00N 34°24' W 122°04'510.3
2018-Jan-10 15:29N 34°24' W 122°10'510.4
2018-Jan-10 15:00N 34°24' W 122°16'610.3
2018-Jan-10 14:28N 34°24' W 122°23'610.5
2018-Jan-10 13:53N 34°24' W 122°31'410.3
2018-Jan-10 13:30N 34°24' W 122°35'3010.5
2018-Jan-10 10:41N 34°24' W 123°11'310.5
2018-Jan-10 10:26N 34°24' W 123°15'1710.5
2018-Jan-10 08:47N 34°24' W 123°36'  

Dump ship's entire track history